createdAt,value
2018-07-30T00:02:20.322Z,91.70
2018-07-30T00:07:04.688Z,92.50
2018-07-30T00:11:49.139Z,92.70
2018-07-30T00:16:33.381Z,93.50
2018-07-30T00:21:17.757Z,93.70
2018-07-30T00:26:02.018Z,93.00
2018-07-30T00:30:46.622Z,93.00
2018-07-30T00:35:30.862Z,93.00
2018-07-30T00:40:16.073Z,92.40
2018-07-30T00:45:00.409Z,92.70
2018-07-30T00:49:44.956Z,92.70
2018-07-30T00:54:29.214Z,93.20
2018-07-30T00:59:13.443Z,93.60
2018-07-30T01:03:57.847Z,93.20
2018-07-30T01:08:42.108Z,93.20
2018-07-30T01:13:26.426Z,93.30
2018-07-30T01:18:11.005Z,93.50
2018-07-30T01:22:55.319Z,93.80
2018-07-30T01:27:39.563Z,93.40
2018-07-30T01:32:23.885Z,92.60
2018-07-30T01:37:08.134Z,92.70
2018-07-30T01:41:52.672Z,92.70
2018-07-30T01:46:36.977Z,92.70
2018-07-30T01:51:21.323Z,92.70
2018-07-30T01:56:05.733Z,92.90
2018-07-30T02:00:49.983Z,92.50
2018-07-30T02:05:34.308Z,92.80
2018-07-30T02:10:18.562Z,92.90
2018-07-30T02:15:02.823Z,93.10
2018-07-30T02:19:47.077Z,93.30
2018-07-30T02:24:31.433Z,93.30
2018-07-30T02:29:15.697Z,93.50
2018-07-30T02:34:00.110Z,93.50
2018-07-30T02:38:44.471Z,93.90
2018-07-30T02:43:28.770Z,94.10
2018-07-30T02:48:13.043Z,93.80
2018-07-30T02:52:57.418Z,94.20
2018-07-30T02:57:41.953Z,94.30
2018-07-30T03:02:26.149Z,94.20
2018-07-30T03:07:10.464Z,94.50
2018-07-30T03:11:54.766Z,94.90
2018-07-30T03:16:39.108Z,94.70
2018-07-30T03:21:23.544Z,94.70
2018-07-30T03:26:08.227Z,94.80
2018-07-30T03:30:52.656Z,95.30
2018-07-30T03:35:37.204Z,95.60
2018-07-30T03:40:21.752Z,95.40
2018-07-30T03:45:07.440Z,95.80
2018-07-30T03:49:51.670Z,96.20
2018-07-30T03:54:36.072Z,96.40
2018-07-30T03:59:20.392Z,96.60
2018-07-30T04:04:04.699Z,97.10
2018-07-30T04:08:48.976Z,97.30
2018-07-30T04:13:33.284Z,97.50
2018-07-30T04:18:17.556Z,97.80
2018-07-30T04:23:01.804Z,97.90
2018-07-30T04:27:46.288Z,98.00
2018-07-30T04:32:30.632Z,98.50
2018-07-30T04:37:14.922Z,99.20
2018-07-30T04:41:59.306Z,99.90
2018-07-30T04:46:43.639Z,99.90
2018-07-30T04:51:28.022Z,99.90
2018-07-30T04:56:12.400Z,99.90
2018-07-30T05:00:56.656Z,99.90
2018-07-30T05:05:41.116Z,99.90
2018-07-30T05:10:25.396Z,99.90
2018-07-30T05:15:09.684Z,99.90
2018-07-30T05:19:54.064Z,99.90
2018-07-30T05:24:38.337Z,99.90
2018-07-30T05:29:22.663Z,99.90
2018-07-30T05:34:07.028Z,99.90
2018-07-30T05:38:51.475Z,99.90
2018-07-30T05:43:35.995Z,99.90
2018-07-30T05:48:20.264Z,99.90
2018-07-30T05:53:04.627Z,99.90
2018-07-30T05:57:48.952Z,99.90
2018-07-30T06:02:33.275Z,99.90
2018-07-30T06:07:17.550Z,99.90
2018-07-30T06:12:01.785Z,99.90
2018-07-30T06:16:46.142Z,99.90
2018-07-30T06:21:30.420Z,99.90
2018-07-30T06:26:14.776Z,99.60
2018-07-30T06:30:59.062Z,98.00
2018-07-30T06:35:43.910Z,96.20
2018-07-30T06:40:28.206Z,95.00
2018-07-30T06:45:12.528Z,93.80
2018-07-30T06:49:56.888Z,92.30
2018-07-30T06:54:41.339Z,92.00
2018-07-30T06:59:25.663Z,91.10
2018-07-30T07:04:09.984Z,90.20
2018-07-30T07:08:54.399Z,89.40
2018-07-30T07:13:38.744Z,87.50
2018-07-30T07:18:23.104Z,87.80
2018-07-30T07:23:07.707Z,87.70
2018-07-30T07:27:52.150Z,85.20
2018-07-30T07:32:36.492Z,84.00
2018-07-30T07:37:20.812Z,82.80
2018-07-30T07:42:05.132Z,81.80
2018-07-30T07:46:49.668Z,80.40
2018-07-30T07:51:34.026Z,77.50
2018-07-30T07:56:18.439Z,76.20
2018-07-30T08:01:02.771Z,72.60
2018-07-30T08:05:46.956Z,69.30
2018-07-30T08:10:31.443Z,67.50
2018-07-30T08:15:15.730Z,65.10
2018-07-30T08:20:00.043Z,63.40
2018-07-30T08:24:44.462Z,61.00
2018-07-30T08:29:28.777Z,59.30
2018-07-30T08:34:13.200Z,57.00
2018-07-30T08:38:57.508Z,56.70
2018-07-30T08:43:41.906Z,55.70
2018-07-30T08:48:26.202Z,55.50
2018-07-30T08:53:10.938Z,53.60
2018-07-30T08:57:55.472Z,53.00
2018-07-30T09:02:40.042Z,53.20
2018-07-30T09:07:24.683Z,54.30
2018-07-30T09:12:09.302Z,52.70
2018-07-30T09:16:53.704Z,53.60
2018-07-30T09:21:38.069Z,51.20
2018-07-30T09:26:22.394Z,51.20
2018-07-30T09:31:06.706Z,50.10
2018-07-30T09:35:51.266Z,50.50
2018-07-30T09:40:36.596Z,50.60
2018-07-30T09:45:20.865Z,49.90
2018-07-30T09:50:05.611Z,48.30
2018-07-30T09:54:49.945Z,49.10
2018-07-30T09:59:34.213Z,48.10
2018-07-30T10:04:18.593Z,47.30
2018-07-30T10:09:02.988Z,45.90
2018-07-30T10:13:47.443Z,45.50
2018-07-30T10:18:31.823Z,45.60
2018-07-30T10:23:16.210Z,43.90
2018-07-30T10:28:00.556Z,45.10
2018-07-30T10:32:44.889Z,45.10
2018-07-30T10:37:29.302Z,42.90
2018-07-30T10:42:13.652Z,42.10
2018-07-30T10:46:57.972Z,42.30
2018-07-30T10:51:42.399Z,41.00
2018-07-30T10:56:26.734Z,41.60
2018-07-30T11:01:11.165Z,42.00
2018-07-30T11:05:55.460Z,43.80
2018-07-30T11:10:39.718Z,46.00
2018-07-30T11:15:24.162Z,47.50
2018-07-30T11:20:08.645Z,45.10
2018-07-30T11:24:53.014Z,44.70
2018-07-30T11:29:37.390Z,43.90
2018-07-30T11:34:21.962Z,41.80
2018-07-30T11:39:09.309Z,40.60
2018-07-30T11:43:53.804Z,40.00
2018-07-30T11:48:38.259Z,39.90
2018-07-30T11:53:22.548Z,38.80
2018-07-30T11:58:06.912Z,38.40
2018-07-30T12:02:51.292Z,39.40
2018-07-30T12:07:35.652Z,39.10
2018-07-30T12:12:20.002Z,39.20
2018-07-30T12:17:04.412Z,37.90
2018-07-30T12:21:48.834Z,38.30
2018-07-30T12:26:33.138Z,38.60
2018-07-30T12:31:17.444Z,38.30
2018-07-30T12:36:01.932Z,38.10
2018-07-30T12:40:46.274Z,38.20
2018-07-30T12:45:36.062Z,39.30
2018-07-30T12:50:20.433Z,40.30
2018-07-30T12:55:04.730Z,40.70
2018-07-30T12:59:49.037Z,42.90
2018-07-30T13:04:33.410Z,42.90
2018-07-30T13:09:17.729Z,39.90
2018-07-30T13:14:02.051Z,38.40
2018-07-30T13:18:46.658Z,36.60
2018-07-30T13:23:30.889Z,36.60
2018-07-30T13:28:15.226Z,36.40
2018-07-30T13:32:59.544Z,36.50
2018-07-30T13:37:43.835Z,35.90
2018-07-30T13:42:28.152Z,35.90
2018-07-30T13:47:12.427Z,34.70
2018-07-30T13:51:56.785Z,34.80
2018-07-30T13:56:41.127Z,33.90
2018-07-30T14:01:25.552Z,34.20
2018-07-30T14:06:09.969Z,35.80
2018-07-30T14:10:54.398Z,37.70
2018-07-30T14:15:38.794Z,38.30
2018-07-30T14:20:23.200Z,39.10
2018-07-30T14:25:07.667Z,37.70
2018-07-30T14:29:52.074Z,40.50
2018-07-30T14:34:36.310Z,40.90
2018-07-30T14:39:20.671Z,39.50
2018-07-30T14:44:05.094Z,38.70
2018-07-30T14:48:49.443Z,39.80
2018-07-30T14:53:34.101Z,40.90
2018-07-30T14:58:18.391Z,41.60
2018-07-30T15:03:02.757Z,41.80
2018-07-30T15:07:47.276Z,42.60
2018-07-30T15:12:32.814Z,41.10
2018-07-30T15:17:17.114Z,41.40
2018-07-30T15:22:01.465Z,40.90
2018-07-30T15:26:45.912Z,39.20
2018-07-30T15:31:30.361Z,39.80
2018-07-30T15:36:14.930Z,38.50
2018-07-30T15:41:01.200Z,40.60
2018-07-30T15:50:29.773Z,41.30
2018-07-30T15:55:14.199Z,42.80
2018-07-30T16:04:42.581Z,44.50
2018-07-30T16:09:26.973Z,45.00
2018-07-30T16:14:11.352Z,44.70
2018-07-30T16:18:55.719Z,44.60
2018-07-30T16:23:40.026Z,45.20
2018-07-30T16:28:24.333Z,44.20
2018-07-30T16:33:08.649Z,43.40
2018-07-30T16:37:53.265Z,44.60
2018-07-30T16:42:37.556Z,44.50
2018-07-30T16:47:22.030Z,41.90
2018-07-30T16:52:06.515Z,41.90
2018-07-30T16:56:51.087Z,40.10
2018-07-30T17:01:35.527Z,39.00
2018-07-30T17:06:19.947Z,37.90
2018-07-30T17:11:04.352Z,37.70
2018-07-30T17:15:49.169Z,37.40
2018-07-30T17:20:34.170Z,37.50
2018-07-30T17:25:18.610Z,38.00
2018-07-30T17:30:03.401Z,38.00
2018-07-30T17:34:47.807Z,38.70
2018-07-30T17:39:33.226Z,38.80
2018-07-30T17:44:17.654Z,40.80
2018-07-30T17:49:02.092Z,41.90
2018-07-30T17:53:46.496Z,43.50
2018-07-30T17:58:30.860Z,45.20
2018-07-30T18:03:15.242Z,46.00
2018-07-30T18:07:59.819Z,47.80
2018-07-30T18:12:44.399Z,49.20
2018-07-30T18:17:28.859Z,49.60
2018-07-30T18:22:13.262Z,50.50
2018-07-30T18:26:57.701Z,50.80
2018-07-30T18:31:42.748Z,51.80
2018-07-30T18:36:27.321Z,51.60
2018-07-30T18:45:55.822Z,52.30
2018-07-30T18:50:41.639Z,52.60
2018-07-30T18:55:26.142Z,53.20
2018-07-30T19:00:10.556Z,54.50
2018-07-30T19:04:55.033Z,55.80
2018-07-30T19:09:39.432Z,54.90
2018-07-30T19:14:23.811Z,55.10
2018-07-30T19:19:08.175Z,55.10
2018-07-30T19:23:52.508Z,56.00
2018-07-30T19:28:36.991Z,56.40
2018-07-30T19:33:21.379Z,56.20
2018-07-30T19:38:05.735Z,57.20
2018-07-30T19:42:50.229Z,57.30
2018-07-30T19:52:28.020Z,58.10
2018-07-30T19:57:12.394Z,57.90
2018-07-30T20:01:56.749Z,58.40
2018-07-30T20:06:41.311Z,59.10
2018-07-30T20:11:25.758Z,60.40
2018-07-30T20:16:10.074Z,61.20
2018-07-30T20:20:54.549Z,61.90
2018-07-30T20:25:38.936Z,62.70
2018-07-30T20:30:23.456Z,62.40
2018-07-30T20:35:07.803Z,62.10
2018-07-30T20:39:52.196Z,61.90
2018-07-30T20:44:36.659Z,63.20
2018-07-30T20:49:21.121Z,63.30
2018-07-30T20:54:05.439Z,63.50
2018-07-30T20:58:49.920Z,63.60
2018-07-30T21:03:34.301Z,64.20
2018-07-30T21:08:18.937Z,64.40
2018-07-30T21:13:03.197Z,64.20
2018-07-30T21:17:47.557Z,64.90
2018-07-30T21:22:31.903Z,65.60
2018-07-30T21:27:16.463Z,66.30
2018-07-30T21:32:00.724Z,67.20
2018-07-30T21:36:45.690Z,67.90
2018-07-30T21:41:30.019Z,69.00
2018-07-30T21:46:14.551Z,68.20
2018-07-30T21:50:58.772Z,67.60
2018-07-30T21:55:43.037Z,67.80
2018-07-30T22:00:27.795Z,68.50
2018-07-30T22:05:14.624Z,68.90
2018-07-30T22:09:58.875Z,69.40
2018-07-30T22:14:43.142Z,70.50
2018-07-30T22:19:28.352Z,70.40
2018-07-30T22:24:12.648Z,70.30
2018-07-30T22:28:56.973Z,69.70
2018-07-30T22:33:41.279Z,68.80
2018-07-30T22:38:25.694Z,68.30
2018-07-30T22:43:10.455Z,68.50
2018-07-30T22:47:54.773Z,67.90
2018-07-30T22:52:39.088Z,68.30
2018-07-30T22:57:23.454Z,68.30
2018-07-30T23:02:07.764Z,69.10
2018-07-30T23:06:52.122Z,69.50
2018-07-30T23:11:36.455Z,70.60
2018-07-30T23:16:20.931Z,70.50
2018-07-30T23:21:05.096Z,70.00
2018-07-30T23:25:49.503Z,70.10
2018-07-30T23:30:33.881Z,70.80
2018-07-30T23:35:18.160Z,70.80
2018-07-30T23:40:02.437Z,71.40
2018-07-30T23:44:47.060Z,72.50
2018-07-30T23:49:31.382Z,72.30
2018-07-30T23:54:15.728Z,72.40
2018-07-30T23:59:00.065Z,73.00
